sensor_id;sensor_type;location;lat;lon;timestamp;P1;durP1;ratioP1;P2;durP2;ratioP2
31974;SDS011;18500;43.618;1.474;2022-12-13T07:07:42;497.65;;;464.23;;
31974;SDS011;18500;43.618;1.474;2022-12-13T07:10:08;599.75;;;558.03;;
31974;SDS011;18500;43.618;1.474;2022-12-13T07:12:34;621.83;;;577.83;;
31974;SDS011;18500;43.618;1.474;2022-12-13T07:14:59;587.25;;;546.42;;
31974;SDS011;18500;43.618;1.474;2022-12-13T07:17:25;613.55;;;570.55;;
31974;SDS011;18500;43.618;1.474;2022-12-13T07:19:51;526.17;;;490.02;;
31974;SDS011;18500;43.618;1.474;2022-12-13T07:22:16;594.00;;;552.67;;
31974;SDS011;18500;43.618;1.474;2022-12-13T07:24:42;569.03;;;528.67;;
31974;SDS011;18500;43.618;1.474;2022-12-13T07:27:08;584.80;;;544.75;;
31974;SDS011;18500;43.618;1.474;2022-12-13T07:29:33;554.78;;;516.58;;
31974;SDS011;18500;43.618;1.474;2022-12-13T07:31:59;522.40;;;487.35;;
31974;SDS011;18500;43.618;1.474;2022-12-13T07:34:25;422.85;;;395.75;;
31974;SDS011;18500;43.618;1.474;2022-12-13T07:36:50;442.25;;;412.80;;
31974;SDS011;18500;43.618;1.474;2022-12-13T07:39:16;406.85;;;379.08;;
31974;SDS011;18500;43.618;1.474;2022-12-13T07:41:41;329.25;;;307.08;;
31974;SDS011;18500;43.618;1.474;2022-12-13T07:44:07;380.88;;;356.27;;
31974;SDS011;18500;43.618;1.474;2022-12-13T07:46:33;422.65;;;393.73;;
31974;SDS011;18500;43.618;1.474;2022-12-13T07:49:02;450.42;;;420.08;;
31974;SDS011;18500;43.618;1.474;2022-12-13T07:51:28;430.77;;;402.67;;
31974;SDS011;18500;43.618;1.474;2022-12-13T07:53:54;420.75;;;393.33;;
31974;SDS011;18500;43.618;1.474;2022-12-13T07:56:19;476.33;;;444.77;;
31974;SDS011;18500;43.618;1.474;2022-12-13T07:58:45;491.98;;;458.92;;
31974;SDS011;18500;43.618;1.474;2022-12-13T08:01:11;520.08;;;485.08;;
31974;SDS011;18500;43.618;1.474;2022-12-13T08:03:37;556.15;;;518.80;;
31974;SDS011;18500;43.618;1.474;2022-12-13T08:06:04;567.40;;;529.30;;
31974;SDS011;18500;43.618;1.474;2022-12-13T08:08:35;565.87;;;526.90;;
31974;SDS011;18500;43.618;1.474;2022-12-13T08:13:34;630.63;;;586.30;;
31974;SDS011;18500;43.618;1.474;2022-12-13T08:16:02;655.50;;;609.10;;
31974;SDS011;18500;43.618;1.474;2022-12-13T08:18:30;589.17;;;548.03;;
31974;SDS011;18500;43.618;1.474;2022-12-13T08:21:03;664.53;;;617.72;;
31974;SDS011;18500;43.618;1.474;2022-12-13T08:23:31;495.85;;;462.52;;
31974;SDS011;18500;43.618;1.474;2022-12-13T08:25:58;506.55;;;471.67;;
31974;SDS011;18500;43.618;1.474;2022-12-13T08:28:24;588.10;;;547.28;;
31974;SDS011;18500;43.618;1.474;2022-12-13T08:30:51;620.25;;;577.00;;
31974;SDS011;18500;43.618;1.474;2022-12-13T08:33:17;598.05;;;555.75;;
31974;SDS011;18500;43.618;1.474;2022-12-13T08:35:43;645.17;;;599.13;;
31974;SDS011;18500;43.618;1.474;2022-12-13T08:38:10;659.85;;;612.53;;
31974;SDS011;18500;43.618;1.474;2022-12-13T08:40:36;642.88;;;597.80;;
31974;SDS011;18500;43.618;1.474;2022-12-13T08:43:02;670.72;;;623.15;;
31974;SDS011;18500;43.618;1.474;2022-12-13T08:45:29;646.45;;;600.45;;
31974;SDS011;18500;43.618;1.474;2022-12-13T08:47:58;629.28;;;584.72;;
31974;SDS011;18500;43.618;1.474;2022-12-13T08:50:24;578.92;;;538.20;;
31974;SDS011;18500;43.618;1.474;2022-12-13T08:52:50;635.17;;;589.35;;
31974;SDS011;18500;43.618;1.474;2022-12-13T08:55:16;623.97;;;579.10;;
31974;SDS011;18500;43.618;1.474;2022-12-13T08:57:43;657.17;;;609.58;;
31974;SDS011;18500;43.618;1.474;2022-12-13T09:00:11;638.83;;;592.05;;
31974;SDS011;18500;43.618;1.474;2022-12-13T09:02:41;688.67;;;637.78;;
31974;SDS011;18500;43.618;1.474;2022-12-13T09:05:08;661.92;;;613.95;;
31974;SDS011;18500;43.618;1.474;2022-12-13T09:07:35;643.72;;;597.88;;
31974;SDS011;18500;43.618;1.474;2022-12-13T09:10:03;636.17;;;589.97;;
31974;SDS011;18500;43.618;1.474;2022-12-13T09:12:30;684.30;;;635.35;;
31974;SDS011;18500;43.618;1.474;2022-12-13T09:14:55;603.63;;;559.58;;
31974;SDS011;18500;43.618;1.474;2022-12-13T09:17:21;622.20;;;577.45;;
31974;SDS011;18500;43.618;1.474;2022-12-13T09:19:47;606.38;;;564.00;;
31974;SDS011;18500;43.618;1.474;2022-12-13T09:22:12;550.22;;;512.38;;
31974;SDS011;18500;43.618;1.474;2022-12-13T09:24:38;593.55;;;551.78;;
31974;SDS011;18500;43.618;1.474;2022-12-13T09:27:04;562.63;;;524.50;;
31974;SDS011;18500;43.618;1.474;2022-12-13T09:29:32;534.70;;;498.75;;
31974;SDS011;18500;43.618;1.474;2022-12-13T09:31:59;558.10;;;519.80;;
31974;SDS011;18500;43.618;1.474;2022-12-13T09:34:25;539.45;;;502.45;;
31974;SDS011;18500;43.618;1.474;2022-12-13T09:36:51;547.40;;;510.02;;
31974;SDS011;18500;43.618;1.474;2022-12-13T09:39:16;569.72;;;530.60;;
31974;SDS011;18500;43.618;1.474;2022-12-13T09:41:46;576.85;;;537.00;;
31974;SDS011;18500;43.618;1.474;2022-12-13T09:46:46;470.00;;;439.00;;
31974;SDS011;18500;43.618;1.474;2022-12-13T09:51:49;560.92;;;521.22;;
31974;SDS011;18500;43.618;1.474;2022-12-13T09:54:18;622.47;;;579.05;;
31974;SDS011;18500;43.618;1.474;2022-12-13T09:56:46;615.13;;;571.47;;
31974;SDS011;18500;43.618;1.474;2022-12-13T09:59:20;624.00;;;579.33;;
31974;SDS011;18500;43.618;1.474;2022-12-13T10:01:52;597.17;;;554.63;;
31974;SDS011;18500;43.618;1.474;2022-12-13T10:04:18;634.28;;;589.63;;
31974;SDS011;18500;43.618;1.474;2022-12-13T10:06:44;677.35;;;630.22;;
31974;SDS011;18500;43.618;1.474;2022-12-13T10:09:11;696.40;;;647.22;;
31974;SDS011;18500;43.618;1.474;2022-12-13T10:11:59;495.90;;;462.40;;
31974;SDS011;18500;43.618;1.474;2022-12-13T10:14:33;603.30;;;558.35;;
31974;SDS011;18500;43.618;1.474;2022-12-13T10:17:04;732.65;;;678.50;;
31974;SDS011;18500;43.618;1.474;2022-12-13T10:19:40;619.92;;;577.80;;
31974;SDS011;18500;43.618;1.474;2022-12-13T10:22:11;667.45;;;621.70;;
31974;SDS011;18500;43.618;1.474;2022-12-13T10:27:19;558.00;;;520.97;;
31974;SDS011;18500;43.618;1.474;2022-12-13T10:32:27;427.05;;;400.58;;
31974;SDS011;18500;43.618;1.474;2022-12-13T10:34:57;657.70;;;612.10;;
31974;SDS011;18500;43.618;1.474;2022-12-13T10:37:29;624.35;;;581.50;;
31974;SDS011;18500;43.618;1.474;2022-12-13T10:39:56;646.20;;;600.13;;
31974;SDS011;18500;43.618;1.474;2022-12-13T10:42:22;723.50;;;671.55;;
31974;SDS011;18500;43.618;1.474;2022-12-13T10:44:48;734.92;;;681.13;;
31974;SDS011;18500;43.618;1.474;2022-12-13T10:47:32;733.08;;;680.47;;
31974;SDS011;18500;43.618;1.474;2022-12-13T10:50:00;767.50;;;711.40;;
31974;SDS011;18500;43.618;1.474;2022-12-13T10:52:32;796.47;;;738.15;;
31974;SDS011;18500;43.618;1.474;2022-12-13T10:55:04;691.60;;;642.33;;
31974;SDS011;18500;43.618;1.474;2022-12-13T10:57:48;728.50;;;676.17;;
31974;SDS011;18500;43.618;1.474;2022-12-13T11:03:05;758.28;;;704.13;;
31974;SDS011;18500;43.618;1.474;2022-12-13T11:05:32;792.03;;;734.78;;
31974;SDS011;18500;43.618;1.474;2022-12-13T11:08:13;742.38;;;688.53;;
31974;SDS011;18500;43.618;1.474;2022-12-13T11:10:58;806.75;;;747.30;;
31974;SDS011;18500;43.618;1.474;2022-12-13T11:16:02;674.38;;;627.00;;
31974;SDS011;18500;43.618;1.474;2022-12-13T11:18:39;765.58;;;710.88;;
31974;SDS011;18500;43.618;1.474;2022-12-13T11:21:04;793.60;;;736.45;;
31974;SDS011;18500;43.618;1.474;2022-12-13T11:23:38;700.63;;;651.15;;
31974;SDS011;18500;43.618;1.474;2022-12-13T11:26:10;760.90;;;705.83;;
31974;SDS011;18500;43.618;1.474;2022-12-13T11:39:40;605.92;;;565.42;;
31974;SDS011;18500;43.618;1.474;2022-12-13T11:42:24;592.42;;;553.17;;
31974;SDS011;18500;43.618;1.474;2022-12-13T11:47:45;708.88;;;659.47;;
31974;SDS011;18500;43.618;1.474;2022-12-13T11:50:23;622.17;;;580.15;;
31974;SDS011;18500;43.618;1.474;2022-12-13T11:53:15;609.10;;;568.47;;
31974;SDS011;18500;43.618;1.474;2022-12-13T12:01:13;571.00;;;533.05;;
31974;SDS011;18500;43.618;1.474;2022-12-13T12:03:43;535.78;;;500.02;;
31974;SDS011;18500;43.618;1.474;2022-12-13T12:09:25;707.22;;;657.83;;
31974;SDS011;18500;43.618;1.474;2022-12-13T12:14:39;591.08;;;550.30;;
31974;SDS011;18500;43.618;1.474;2022-12-13T12:17:21;634.45;;;590.28;;
31974;SDS011;18500;43.618;1.474;2022-12-13T12:19:49;539.28;;;503.13;;
31974;SDS011;18500;43.618;1.474;2022-12-13T12:22:39;526.75;;;491.75;;
31974;SDS011;18500;43.618;1.474;2022-12-13T12:27:47;601.63;;;561.00;;
31974;SDS011;18500;43.618;1.474;2022-12-13T12:30:40;546.33;;;510.02;;
31974;SDS011;18500;43.618;1.474;2022-12-13T12:33:23;545.22;;;508.70;;
31974;SDS011;18500;43.618;1.474;2022-12-13T12:56:01;589.28;;;549.58;;
31974;SDS011;18500;43.618;1.474;2022-12-13T13:02:04;567.20;;;530.05;;
31974;SDS011;18500;43.618;1.474;2022-12-13T13:04:09;635.95;;;592.58;;
31974;SDS011;18500;43.618;1.474;2022-12-13T13:06:40;595.42;;;555.75;;
31974;SDS011;18500;43.618;1.474;2022-12-13T13:09:12;564.95;;;526.33;;
31974;SDS011;18500;43.618;1.474;2022-12-13T13:11:41;618.40;;;574.83;;
31974;SDS011;18500;43.618;1.474;2022-12-13T13:16:49;621.03;;;579.05;;
31974;SDS011;18500;43.618;1.474;2022-12-13T13:24:20;553.33;;;517.45;;
31974;SDS011;18500;43.618;1.474;2022-12-13T13:31:55;363.00;;;339.73;;
31974;SDS011;18500;43.618;1.474;2022-12-13T13:34:40;486.42;;;455.45;;
31974;SDS011;18500;43.618;1.474;2022-12-13T13:42:28;362.92;;;339.15;;
31974;SDS011;18500;43.618;1.474;2022-12-13T13:44:59;555.33;;;517.83;;
31974;SDS011;18500;43.618;1.474;2022-12-13T13:55:59;469.02;;;437.83;;
31974;SDS011;18500;43.618;1.474;2022-12-13T14:04:37;540.33;;;505.30;;
31974;SDS011;18500;43.618;1.474;2022-12-13T14:07:44;503.00;;;469.95;;
31974;SDS011;18500;43.618;1.474;2022-12-13T14:27:18;497.42;;;464.75;;
31974;SDS011;18500;43.618;1.474;2022-12-13T14:29:50;512.78;;;479.77;;
31974;SDS011;18500;43.618;1.474;2022-12-13T14:34:45;446.75;;;418.73;;
31974;SDS011;18500;43.618;1.474;2022-12-13T14:37:19;441.73;;;414.73;;
31974;SDS011;18500;43.618;1.474;2022-12-13T14:39:51;225.43;;;210.25;;
31974;SDS011;18500;43.618;1.474;2022-12-13T14:42:22;300.55;;;279.20;;
31974;SDS011;18500;43.618;1.474;2022-12-13T14:44:54;529.22;;;493.25;;
31974;SDS011;18500;43.618;1.474;2022-12-13T14:47:38;688.20;;;638.58;;
31974;SDS011;18500;43.618;1.474;2022-12-13T14:50:07;331.05;;;308.67;;
31974;SDS011;18500;43.618;1.474;2022-12-13T14:52:36;357.52;;;334.20;;
31974;SDS011;18500;43.618;1.474;2022-12-13T14:55:04;474.27;;;440.52;;
31974;SDS011;18500;43.618;1.474;2022-12-13T14:57:31;583.85;;;543.55;;
31974;SDS011;18500;43.618;1.474;2022-12-13T15:00:00;476.75;;;445.52;;
31974;SDS011;18500;43.618;1.474;2022-12-13T15:02:48;582.53;;;538.88;;
31974;SDS011;18500;43.618;1.474;2022-12-13T15:05:21;668.95;;;620.97;;
31974;SDS011;18500;43.618;1.474;2022-12-13T15:07:52;345.60;;;323.38;;
31974;SDS011;18500;43.618;1.474;2022-12-13T15:10:20;530.50;;;493.17;;
31974;SDS011;18500;43.618;1.474;2022-12-13T15:15:54;539.38;;;502.55;;
31974;SDS011;18500;43.618;1.474;2022-12-13T15:18:25;388.65;;;362.35;;
31974;SDS011;18500;43.618;1.474;2022-12-13T15:20:52;378.08;;;353.10;;
31974;SDS011;18500;43.618;1.474;2022-12-13T15:25:46;372.85;;;346.25;;
31974;SDS011;18500;43.618;1.474;2022-12-13T15:28:26;705.95;;;654.90;;
31974;SDS011;18500;43.618;1.474;2022-12-13T15:30:53;337.95;;;314.50;;
31974;SDS011;18500;43.618;1.474;2022-12-13T15:33:22;558.85;;;519.97;;
31974;SDS011;18500;43.618;1.474;2022-12-13T15:35:59;517.15;;;482.73;;
31974;SDS011;18500;43.618;1.474;2022-12-13T15:38:32;475.15;;;442.35;;
31974;SDS011;18500;43.618;1.474;2022-12-13T15:40:59;740.25;;;685.15;;
31974;SDS011;18500;43.618;1.474;2022-12-13T15:43:35;716.08;;;664.67;;
31974;SDS011;18500;43.618;1.474;2022-12-13T15:46:07;693.28;;;642.85;;
31974;SDS011;18500;43.618;1.474;2022-12-13T15:48:41;693.80;;;643.90;;
31974;SDS011;18500;43.618;1.474;2022-12-13T15:51:09;677.80;;;630.85;;
31974;SDS011;18500;43.618;1.474;2022-12-13T15:53:36;730.13;;;677.20;;
31974;SDS011;18500;43.618;1.474;2022-12-13T15:58:55;749.78;;;696.25;;
31974;SDS011;18500;43.618;1.474;2022-12-13T16:01:25;755.53;;;701.63;;
31974;SDS011;18500;43.618;1.474;2022-12-13T16:03:52;768.22;;;712.60;;
31974;SDS011;18500;43.618;1.474;2022-12-13T16:06:18;729.38;;;678.50;;
31974;SDS011;18500;43.618;1.474;2022-12-13T16:08:48;731.25;;;678.78;;
31974;SDS011;18500;43.618;1.474;2022-12-13T16:11:15;605.03;;;562.13;;
31974;SDS011;18500;43.618;1.474;2022-12-13T16:16:47;507.20;;;472.60;;
31974;SDS011;18500;43.618;1.474;2022-12-13T16:19:14;531.35;;;495.48;;
31974;SDS011;18500;43.618;1.474;2022-12-13T16:21:43;570.45;;;531.05;;
31974;SDS011;18500;43.618;1.474;2022-12-13T16:24:08;573.53;;;533.15;;
31974;SDS011;18500;43.618;1.474;2022-12-13T16:26:34;555.90;;;517.63;;
31974;SDS011;18500;43.618;1.474;2022-12-13T16:28:59;571.47;;;532.17;;
31974;SDS011;18500;43.618;1.474;2022-12-13T16:31:26;573.00;;;533.65;;
31974;SDS011;18500;43.618;1.474;2022-12-13T16:33:59;611.85;;;569.72;;
31974;SDS011;18500;43.618;1.474;2022-12-13T16:36:25;527.70;;;492.02;;
31974;SDS011;18500;43.618;1.474;2022-12-13T16:38:50;573.97;;;534.63;;
31974;SDS011;18500;43.618;1.474;2022-12-13T16:41:16;598.17;;;556.53;;
31974;SDS011;18500;43.618;1.474;2022-12-13T16:43:52;643.85;;;598.65;;
31974;SDS011;18500;43.618;1.474;2022-12-13T16:48:50;554.53;;;516.88;;
31974;SDS011;18500;43.618;1.474;2022-12-13T16:51:16;598.05;;;556.80;;
31974;SDS011;18500;43.618;1.474;2022-12-13T16:53:42;547.88;;;510.23;;
31974;SDS011;18500;43.618;1.474;2022-12-13T16:56:08;497.88;;;464.33;;
31974;SDS011;18500;43.618;1.474;2022-12-13T16:58:40;546.50;;;509.50;;
31974;SDS011;18500;43.618;1.474;2022-12-13T17:01:09;516.53;;;481.08;;
31974;SDS011;18500;43.618;1.474;2022-12-13T17:03:37;564.22;;;525.88;;
31974;SDS011;18500;43.618;1.474;2022-12-13T17:06:03;585.10;;;544.83;;
31974;SDS011;18500;43.618;1.474;2022-12-13T17:08:29;608.42;;;566.25;;
31974;SDS011;18500;43.618;1.474;2022-12-13T17:10:56;537.17;;;500.00;;
31974;SDS011;18500;43.618;1.474;2022-12-13T17:13:22;541.15;;;504.85;;
31974;SDS011;18500;43.618;1.474;2022-12-13T17:15:47;537.33;;;501.17;;
31974;SDS011;18500;43.618;1.474;2022-12-13T17:18:13;574.60;;;536.08;;
31974;SDS011;18500;43.618;1.474;2022-12-13T17:20:39;545.05;;;508.60;;
31974;SDS011;18500;43.618;1.474;2022-12-13T17:23:06;600.05;;;558.42;;
31974;SDS011;18500;43.618;1.474;2022-12-13T17:25:35;647.85;;;601.70;;
31974;SDS011;18500;43.618;1.474;2022-12-13T17:28:02;572.30;;;532.55;;
31974;SDS011;18500;43.618;1.474;2022-12-13T17:30:29;631.42;;;586.97;;
31974;SDS011;18500;43.618;1.474;2022-12-13T17:33:00;616.03;;;572.53;;
31974;SDS011;18500;43.618;1.474;2022-12-13T17:35:27;575.70;;;535.53;;
31974;SDS011;18500;43.618;1.474;2022-12-13T17:37:53;646.15;;;600.72;;
31974;SDS011;18500;43.618;1.474;2022-12-13T17:40:19;630.13;;;585.28;;
31974;SDS011;18500;43.618;1.474;2022-12-13T17:42:49;648.97;;;602.78;;
31974;SDS011;18500;43.618;1.474;2022-12-13T17:45:15;543.47;;;505.70;;
31974;SDS011;18500;43.618;1.474;2022-12-13T17:47:44;508.90;;;473.58;;
31974;SDS011;18500;43.618;1.474;2022-12-13T17:50:10;545.17;;;507.52;;
31974;SDS011;18500;43.618;1.474;2022-12-13T17:52:39;522.28;;;485.55;;
31974;SDS011;18500;43.618;1.474;2022-12-13T17:55:06;501.38;;;466.27;;
31974;SDS011;18500;43.618;1.474;2022-12-13T17:57:32;422.15;;;392.67;;
31974;SDS011;18500;43.618;1.474;2022-12-13T17:59:58;429.15;;;398.55;;
31974;SDS011;18500;43.618;1.474;2022-12-13T18:02:25;403.15;;;374.40;;
31974;SDS011;18500;43.618;1.474;2022-12-13T18:04:51;425.75;;;396.23;;
31974;SDS011;18500;43.618;1.474;2022-12-13T18:07:17;398.10;;;371.67;;
31974;SDS011;18500;43.618;1.474;2022-12-13T18:09:43;393.98;;;367.00;;
31974;SDS011;18500;43.618;1.474;2022-12-13T18:12:09;383.35;;;356.95;;
31974;SDS011;18500;43.618;1.474;2022-12-13T18:14:36;387.30;;;360.65;;
31974;SDS011;18500;43.618;1.474;2022-12-13T18:17:02;373.50;;;347.42;;
31974;SDS011;18500;43.618;1.474;2022-12-13T18:19:28;421.65;;;392.63;;
31974;SDS011;18500;43.618;1.474;2022-12-13T18:21:56;386.60;;;359.90;;
31974;SDS011;18500;43.618;1.474;2022-12-13T18:24:22;385.48;;;358.92;;
31974;SDS011;18500;43.618;1.474;2022-12-13T18:26:48;408.77;;;381.45;;
31974;SDS011;18500;43.618;1.474;2022-12-13T18:29:14;368.42;;;343.80;;
31974;SDS011;18500;43.618;1.474;2022-12-13T18:31:40;358.95;;;335.23;;
31974;SDS011;18500;43.618;1.474;2022-12-13T18:34:06;393.95;;;367.10;;
31974;SDS011;18500;43.618;1.474;2022-12-13T18:36:32;341.08;;;318.75;;
31974;SDS011;18500;43.618;1.474;2022-12-13T18:38:59;410.15;;;382.42;;
31974;SDS011;18500;43.618;1.474;2022-12-13T18:41:25;391.65;;;364.50;;
31974;SDS011;18500;43.618;1.474;2022-12-13T18:43:53;397.77;;;371.25;;
31974;SDS011;18500;43.618;1.474;2022-12-13T18:46:23;499.13;;;463.70;;
31974;SDS011;18500;43.618;1.474;2022-12-13T18:48:49;389.20;;;363.23;;
31974;SDS011;18500;43.618;1.474;2022-12-13T18:51:15;484.83;;;451.73;;
31974;SDS011;18500;43.618;1.474;2022-12-13T18:53:42;443.98;;;414.30;;
31974;SDS011;18500;43.618;1.474;2022-12-13T18:56:09;428.02;;;399.55;;
31974;SDS011;18500;43.618;1.474;2022-12-13T18:58:37;411.05;;;383.95;;
31974;SDS011;18500;43.618;1.474;2022-12-13T19:01:06;477.65;;;444.90;;
31974;SDS011;18500;43.618;1.474;2022-12-13T19:03:34;509.73;;;476.25;;
31974;SDS011;18500;43.618;1.474;2022-12-13T19:06:01;579.95;;;538.85;;
31974;SDS011;18500;43.618;1.474;2022-12-13T19:08:27;500.55;;;467.48;;
31974;SDS011;18500;43.618;1.474;2022-12-13T19:10:55;597.92;;;556.00;;
31974;SDS011;18500;43.618;1.474;2022-12-13T19:13:23;534.95;;;499.52;;
31974;SDS011;18500;43.618;1.474;2022-12-13T19:15:53;476.58;;;445.50;;
31974;SDS011;18500;43.618;1.474;2022-12-13T19:18:19;557.72;;;518.60;;
31974;SDS011;18500;43.618;1.474;2022-12-13T19:20:49;606.95;;;564.33;;
31974;SDS011;18500;43.618;1.474;2022-12-13T19:23:17;464.17;;;433.45;;
31974;SDS011;18500;43.618;1.474;2022-12-13T19:25:43;463.83;;;433.50;;
31974;SDS011;18500;43.618;1.474;2022-12-13T19:28:09;533.80;;;497.05;;
31974;SDS011;18500;43.618;1.474;2022-12-13T19:30:36;508.00;;;474.90;;
31974;SDS011;18500;43.618;1.474;2022-12-13T19:33:02;570.88;;;531.30;;
31974;SDS011;18500;43.618;1.474;2022-12-13T19:35:29;516.67;;;481.98;;
31974;SDS011;18500;43.618;1.474;2022-12-13T19:37:54;549.50;;;511.80;;
31974;SDS011;18500;43.618;1.474;2022-12-13T19:40:20;535.45;;;499.17;;
31974;SDS011;18500;43.618;1.474;2022-12-13T19:42:46;594.67;;;553.08;;
31974;SDS011;18500;43.618;1.474;2022-12-13T19:45:11;518.45;;;483.90;;
31974;SDS011;18500;43.618;1.474;2022-12-13T19:47:37;500.80;;;467.75;;
31974;SDS011;18500;43.618;1.474;2022-12-13T19:50:03;517.97;;;483.85;;
31974;SDS011;18500;43.618;1.474;2022-12-13T19:52:29;498.85;;;466.25;;
31974;SDS011;18500;43.618;1.474;2022-12-13T19:54:55;453.98;;;424.50;;
31974;SDS011;18500;43.618;1.474;2022-12-13T19:57:20;467.77;;;437.30;;
31974;SDS011;18500;43.618;1.474;2022-12-13T19:59:46;452.63;;;422.77;;
31974;SDS011;18500;43.618;1.474;2022-12-13T20:02:12;529.30;;;493.73;;
31974;SDS011;18500;43.618;1.474;2022-12-13T20:04:38;611.45;;;568.10;;
31974;SDS011;18500;43.618;1.474;2022-12-13T20:07:04;469.40;;;439.27;;
31974;SDS011;18500;43.618;1.474;2022-12-13T20:09:30;508.45;;;473.63;;
31974;SDS011;18500;43.618;1.474;2022-12-13T20:11:57;455.73;;;425.38;;
31974;SDS011;18500;43.618;1.474;2022-12-13T20:14:22;357.33;;;334.10;;
31974;SDS011;18500;43.618;1.474;2022-12-13T20:16:48;382.52;;;357.95;;
31974;SDS011;18500;43.618;1.474;2022-12-13T20:19:14;358.52;;;334.45;;
31974;SDS011;18500;43.618;1.474;2022-12-13T20:21:40;399.90;;;373.23;;
31974;SDS011;18500;43.618;1.474;2022-12-13T20:24:05;359.00;;;334.92;;
31974;SDS011;18500;43.618;1.474;2022-12-13T20:26:31;322.80;;;301.92;;
31974;SDS011;18500;43.618;1.474;2022-12-13T20:28:57;350.67;;;326.40;;
31974;SDS011;18500;43.618;1.474;2022-12-13T20:31:26;345.27;;;323.02;;
31974;SDS011;18500;43.618;1.474;2022-12-13T20:33:54;336.83;;;312.60;;
31974;SDS011;18500;43.618;1.474;2022-12-13T20:36:22;303.23;;;283.17;;
31974;SDS011;18500;43.618;1.474;2022-12-13T20:38:50;333.27;;;310.85;;
31974;SDS011;18500;43.618;1.474;2022-12-13T20:41:16;319.08;;;297.25;;
31974;SDS011;18500;43.618;1.474;2022-12-13T20:43:42;292.92;;;274.73;;
31974;SDS011;18500;43.618;1.474;2022-12-13T20:46:09;290.60;;;271.77;;
31974;SDS011;18500;43.618;1.474;2022-12-13T20:48:37;316.45;;;296.67;;
31974;SDS011;18500;43.618;1.474;2022-12-13T20:51:05;311.63;;;291.08;;
31974;SDS011;18500;43.618;1.474;2022-12-13T20:53:33;366.23;;;343.52;;
31974;SDS011;18500;43.618;1.474;2022-12-13T20:56:02;374.85;;;351.40;;
31974;SDS011;18500;43.618;1.474;2022-12-13T20:58:33;335.88;;;314.65;;
31974;SDS011;18500;43.618;1.474;2022-12-13T21:00:59;341.42;;;320.25;;
31974;SDS011;18500;43.618;1.474;2022-12-13T21:03:25;347.60;;;326.60;;
31974;SDS011;18500;43.618;1.474;2022-12-13T21:05:51;420.00;;;393.80;;
31974;SDS011;18500;43.618;1.474;2022-12-13T21:08:17;410.08;;;383.33;;
31974;SDS011;18500;43.618;1.474;2022-12-13T21:11:02;377.98;;;353.98;;
31974;SDS011;18500;43.618;1.474;2022-12-13T21:13:47;395.48;;;369.83;;
31974;SDS011;18500;43.618;1.474;2022-12-13T21:16:14;491.33;;;458.80;;
31974;SDS011;18500;43.618;1.474;2022-12-13T21:18:39;464.67;;;433.67;;
31974;SDS011;18500;43.618;1.474;2022-12-13T21:21:06;439.50;;;411.42;;
31974;SDS011;18500;43.618;1.474;2022-12-13T21:23:32;466.10;;;435.48;;
31974;SDS011;18500;43.618;1.474;2022-12-13T21:25:58;545.65;;;507.90;;
31974;SDS011;18500;43.618;1.474;2022-12-13T21:28:24;410.42;;;384.00;;
31974;SDS011;18500;43.618;1.474;2022-12-13T22:24:40;562.92;;;525.10;;
31974;SDS011;18500;43.618;1.474;2022-12-13T22:27:06;608.15;;;565.90;;
31974;SDS011;18500;43.618;1.474;2022-12-13T22:29:32;648.58;;;602.72;;
31974;SDS011;18500;43.618;1.474;2022-12-13T22:31:57;493.75;;;461.30;;
31974;SDS011;18500;43.618;1.474;2022-12-13T22:34:23;476.88;;;445.50;;
31974;SDS011;18500;43.618;1.474;2022-12-13T22:36:49;616.97;;;573.55;;
31974;SDS011;18500;43.618;1.474;2022-12-13T22:39:15;677.55;;;629.88;;
31974;SDS011;18500;43.618;1.474;2022-12-13T22:41:42;670.65;;;623.40;;
31974;SDS011;18500;43.618;1.474;2022-12-13T22:44:11;654.08;;;608.95;;
31974;SDS011;18500;43.618;1.474;2022-12-13T22:46:38;556.15;;;518.50;;
31974;SDS011;18500;43.618;1.474;2022-12-13T22:49:04;646.47;;;601.90;;
31974;SDS011;18500;43.618;1.474;2022-12-13T22:51:30;550.00;;;512.85;;
31974;SDS011;18500;43.618;1.474;2022-12-13T22:53:55;489.38;;;456.58;;
31974;SDS011;18500;43.618;1.474;2022-12-13T22:56:21;447.67;;;418.20;;
31974;SDS011;18500;43.618;1.474;2022-12-13T22:58:55;476.50;;;444.90;;
31974;SDS011;18500;43.618;1.474;2022-12-13T23:01:23;443.02;;;414.35;;
31974;SDS011;18500;43.618;1.474;2022-12-13T23:03:50;483.50;;;451.77;;
31974;SDS011;18500;43.618;1.474;2022-12-13T23:06:24;498.50;;;465.55;;
31974;SDS011;18500;43.618;1.474;2022-12-13T23:08:52;601.42;;;559.63;;
31974;SDS011;18500;43.618;1.474;2022-12-13T23:11:20;678.88;;;631.15;;
31974;SDS011;18500;43.618;1.474;2022-12-13T23:14:06;652.72;;;606.50;;
31974;SDS011;18500;43.618;1.474;2022-12-13T23:16:33;652.95;;;607.28;;
31974;SDS011;18500;43.618;1.474;2022-12-13T23:19:00;499.23;;;466.15;;
31974;SDS011;18500;43.618;1.474;2022-12-13T23:21:27;636.63;;;592.20;;
31974;SDS011;18500;43.618;1.474;2022-12-13T23:23:54;648.85;;;603.40;;
31974;SDS011;18500;43.618;1.474;2022-12-13T23:26:21;702.80;;;653.70;;
31974;SDS011;18500;43.618;1.474;2022-12-13T23:28:50;727.90;;;676.28;;
31974;SDS011;18500;43.618;1.474;2022-12-13T23:31:18;714.58;;;664.40;;
31974;SDS011;18500;43.618;1.474;2022-12-13T23:33:44;708.60;;;658.13;;
31974;SDS011;18500;43.618;1.474;2022-12-13T23:36:11;684.92;;;636.45;;
